sensor_id;sensor_type;location;lat;lon;timestamp;P1;durP1;ratioP1;P2;durP2;ratioP2
25715;SDS011;13573;50.936;4.328;2022-10-30T00:00:27;19.73;;;6.67;;
25715;SDS011;13573;50.936;4.328;2022-10-30T00:02:53;25.20;;;6.17;;
25715;SDS011;13573;50.936;4.328;2022-10-30T00:05:20;17.60;;;6.07;;
25715;SDS011;13573;50.936;4.328;2022-10-30T00:07:47;13.20;;;5.67;;
25715;SDS011;13573;50.936;4.328;2022-10-30T00:10:14;13.23;;;5.90;;
25715;SDS011;13573;50.936;4.328;2022-10-30T00:12:42;17.87;;;6.40;;
25715;SDS011;13573;50.936;4.328;2022-10-30T00:15:09;19.10;;;6.27;;
25715;SDS011;13573;50.936;4.328;2022-10-30T00:17:37;18.73;;;5.87;;
25715;SDS011;13573;50.936;4.328;2022-10-30T00:20:04;18.17;;;5.97;;
25715;SDS011;13573;50.936;4.328;2022-10-30T00:22:31;16.60;;;5.97;;
25715;SDS011;13573;50.936;4.328;2022-10-30T00:24:57;21.87;;;6.73;;
25715;SDS011;13573;50.936;4.328;2022-10-30T00:27:24;15.00;;;5.83;;
25715;SDS011;13573;50.936;4.328;2022-10-30T00:29:51;18.07;;;6.10;;
25715;SDS011;13573;50.936;4.328;2022-10-30T00:32:17;16.53;;;6.70;;
25715;SDS011;13573;50.936;4.328;2022-10-30T00:34:44;17.33;;;6.80;;
25715;SDS011;13573;50.936;4.328;2022-10-30T00:37:11;11.47;;;5.53;;
25715;SDS011;13573;50.936;4.328;2022-10-30T00:39:37;18.87;;;6.37;;
25715;SDS011;13573;50.936;4.328;2022-10-30T00:42:04;20.53;;;6.60;;
25715;SDS011;13573;50.936;4.328;2022-10-30T00:44:33;21.57;;;6.50;;
25715;SDS011;13573;50.936;4.328;2022-10-30T00:47:05;14.43;;;6.30;;
25715;SDS011;13573;50.936;4.328;2022-10-30T00:49:34;21.37;;;7.20;;
25715;SDS011;13573;50.936;4.328;2022-10-30T00:52:04;17.63;;;7.27;;
25715;SDS011;13573;50.936;4.328;2022-10-30T00:54:32;18.43;;;6.97;;
25715;SDS011;13573;50.936;4.328;2022-10-30T00:57:01;19.23;;;7.13;;
25715;SDS011;13573;50.936;4.328;2022-10-30T00:59:30;14.37;;;6.20;;
25715;SDS011;13573;50.936;4.328;2022-10-30T01:02:00;18.00;;;6.67;;
25715;SDS011;13573;50.936;4.328;2022-10-30T01:04:29;17.23;;;7.03;;
25715;SDS011;13573;50.936;4.328;2022-10-30T01:06:58;26.03;;;7.43;;
25715;SDS011;13573;50.936;4.328;2022-10-30T01:09:29;17.83;;;6.67;;
25715;SDS011;13573;50.936;4.328;2022-10-30T01:11:56;21.53;;;7.10;;
25715;SDS011;13573;50.936;4.328;2022-10-30T01:14:22;26.57;;;7.60;;
25715;SDS011;13573;50.936;4.328;2022-10-30T01:16:54;22.53;;;6.90;;
25715;SDS011;13573;50.936;4.328;2022-10-30T01:19:24;24.33;;;7.17;;
25715;SDS011;13573;50.936;4.328;2022-10-30T01:22:04;21.10;;;6.83;;
25715;SDS011;13573;50.936;4.328;2022-10-30T01:25:04;20.50;;;7.40;;
25715;SDS011;13573;50.936;4.328;2022-10-30T01:27:57;21.50;;;6.73;;
25715;SDS011;13573;50.936;4.328;2022-10-30T01:30:28;16.90;;;6.63;;
25715;SDS011;13573;50.936;4.328;2022-10-30T01:33:22;18.67;;;6.90;;
25715;SDS011;13573;50.936;4.328;2022-10-30T01:36:12;26.93;;;7.83;;
25715;SDS011;13573;50.936;4.328;2022-10-30T01:38:40;16.47;;;6.17;;
25715;SDS011;13573;50.936;4.328;2022-10-30T01:41:09;16.63;;;7.10;;
25715;SDS011;13573;50.936;4.328;2022-10-30T01:43:36;21.20;;;7.80;;
25715;SDS011;13573;50.936;4.328;2022-10-30T01:48:51;22.93;;;6.90;;
25715;SDS011;13573;50.936;4.328;2022-10-30T01:51:39;18.40;;;6.83;;
25715;SDS011;13573;50.936;4.328;2022-10-30T01:54:18;16.70;;;6.70;;
25715;SDS011;13573;50.936;4.328;2022-10-30T01:57:03;16.30;;;6.87;;
25715;SDS011;13573;50.936;4.328;2022-10-30T01:59:41;21.03;;;6.87;;
25715;SDS011;13573;50.936;4.328;2022-10-30T02:02:10;15.97;;;6.90;;
25715;SDS011;13573;50.936;4.328;2022-10-30T02:04:37;21.53;;;7.00;;
25715;SDS011;13573;50.936;4.328;2022-10-30T02:07:04;20.20;;;7.77;;
25715;SDS011;13573;50.936;4.328;2022-10-30T02:09:31;19.50;;;6.80;;
25715;SDS011;13573;50.936;4.328;2022-10-30T02:11:58;17.17;;;7.60;;
25715;SDS011;13573;50.936;4.328;2022-10-30T02:14:27;19.30;;;6.67;;
25715;SDS011;13573;50.936;4.328;2022-10-30T02:16:56;17.50;;;7.40;;
25715;SDS011;13573;50.936;4.328;2022-10-30T02:19:23;15.00;;;6.83;;
25715;SDS011;13573;50.936;4.328;2022-10-30T02:21:49;17.53;;;6.30;;
25715;SDS011;13573;50.936;4.328;2022-10-30T02:24:17;21.87;;;7.03;;
25715;SDS011;13573;50.936;4.328;2022-10-30T02:26:44;20.40;;;6.90;;
25715;SDS011;13573;50.936;4.328;2022-10-30T02:29:11;19.50;;;7.60;;
25715;SDS011;13573;50.936;4.328;2022-10-30T02:31:38;19.27;;;7.40;;
25715;SDS011;13573;50.936;4.328;2022-10-30T02:34:05;19.03;;;7.77;;
25715;SDS011;13573;50.936;4.328;2022-10-30T02:36:32;16.80;;;6.77;;
25715;SDS011;13573;50.936;4.328;2022-10-30T02:38:59;18.67;;;6.30;;
25715;SDS011;13573;50.936;4.328;2022-10-30T02:41:25;18.33;;;7.03;;
25715;SDS011;13573;50.936;4.328;2022-10-30T02:43:51;23.07;;;7.63;;
25715;SDS011;13573;50.936;4.328;2022-10-30T02:46:18;21.43;;;7.20;;
25715;SDS011;13573;50.936;4.328;2022-10-30T02:48:45;19.80;;;6.73;;
25715;SDS011;13573;50.936;4.328;2022-10-30T02:51:12;16.27;;;6.53;;
25715;SDS011;13573;50.936;4.328;2022-10-30T02:53:38;21.07;;;6.90;;
25715;SDS011;13573;50.936;4.328;2022-10-30T02:56:07;17.37;;;6.87;;
25715;SDS011;13573;50.936;4.328;2022-10-30T02:58:34;19.37;;;6.73;;
25715;SDS011;13573;50.936;4.328;2022-10-30T03:01:04;26.87;;;7.97;;
25715;SDS011;13573;50.936;4.328;2022-10-30T03:03:30;19.40;;;6.87;;
25715;SDS011;13573;50.936;4.328;2022-10-30T03:05:59;19.20;;;7.23;;
25715;SDS011;13573;50.936;4.328;2022-10-30T03:08:26;18.50;;;7.13;;
25715;SDS011;13573;50.936;4.328;2022-10-30T03:10:57;22.17;;;8.17;;
25715;SDS011;13573;50.936;4.328;2022-10-30T03:13:21;17.63;;;8.10;;
25715;SDS011;13573;50.936;4.328;2022-10-30T03:15:48;17.07;;;7.50;;
25715;SDS011;13573;50.936;4.328;2022-10-30T03:18:15;18.30;;;7.03;;
25715;SDS011;13573;50.936;4.328;2022-10-30T03:20:41;17.37;;;6.80;;
25715;SDS011;13573;50.936;4.328;2022-10-30T03:23:08;23.43;;;6.80;;
25715;SDS011;13573;50.936;4.328;2022-10-30T03:25:35;20.03;;;6.90;;
25715;SDS011;13573;50.936;4.328;2022-10-30T03:28:02;21.90;;;7.80;;
25715;SDS011;13573;50.936;4.328;2022-10-30T03:30:28;16.57;;;7.50;;
25715;SDS011;13573;50.936;4.328;2022-10-30T03:32:55;21.83;;;7.70;;
25715;SDS011;13573;50.936;4.328;2022-10-30T03:35:21;18.67;;;7.63;;
25715;SDS011;13573;50.936;4.328;2022-10-30T03:37:48;26.23;;;7.90;;
25715;SDS011;13573;50.936;4.328;2022-10-30T03:40:14;19.30;;;7.47;;
25715;SDS011;13573;50.936;4.328;2022-10-30T03:42:41;20.67;;;7.53;;
25715;SDS011;13573;50.936;4.328;2022-10-30T03:45:08;14.70;;;7.17;;
25715;SDS011;13573;50.936;4.328;2022-10-30T03:47:38;21.37;;;7.90;;
25715;SDS011;13573;50.936;4.328;2022-10-30T03:50:04;16.77;;;7.03;;
25715;SDS011;13573;50.936;4.328;2022-10-30T03:52:31;19.80;;;7.60;;
25715;SDS011;13573;50.936;4.328;2022-10-30T03:54:58;29.37;;;8.13;;
25715;SDS011;13573;50.936;4.328;2022-10-30T03:57:24;17.40;;;7.83;;
25715;SDS011;13573;50.936;4.328;2022-10-30T03:59:51;16.77;;;7.10;;
25715;SDS011;13573;50.936;4.328;2022-10-30T04:02:17;24.30;;;7.07;;
25715;SDS011;13573;50.936;4.328;2022-10-30T04:04:44;15.63;;;7.77;;
25715;SDS011;13573;50.936;4.328;2022-10-30T04:07:11;22.07;;;7.07;;
25715;SDS011;13573;50.936;4.328;2022-10-30T04:09:37;19.37;;;7.27;;
25715;SDS011;13573;50.936;4.328;2022-10-30T04:12:05;20.13;;;7.17;;
25715;SDS011;13573;50.936;4.328;2022-10-30T04:14:31;23.27;;;7.57;;
25715;SDS011;13573;50.936;4.328;2022-10-30T04:16:58;15.07;;;6.93;;
25715;SDS011;13573;50.936;4.328;2022-10-30T04:19:24;21.23;;;7.03;;
25715;SDS011;13573;50.936;4.328;2022-10-30T04:21:51;16.37;;;7.03;;
25715;SDS011;13573;50.936;4.328;2022-10-30T04:24:18;22.13;;;8.03;;
25715;SDS011;13573;50.936;4.328;2022-10-30T04:26:44;19.47;;;7.47;;
25715;SDS011;13573;50.936;4.328;2022-10-30T04:29:11;19.17;;;7.60;;
25715;SDS011;13573;50.936;4.328;2022-10-30T04:31:37;24.30;;;8.13;;
25715;SDS011;13573;50.936;4.328;2022-10-30T04:34:04;21.60;;;7.37;;
25715;SDS011;13573;50.936;4.328;2022-10-30T04:36:31;23.20;;;7.93;;
25715;SDS011;13573;50.936;4.328;2022-10-30T04:38:58;24.50;;;7.90;;
25715;SDS011;13573;50.936;4.328;2022-10-30T04:41:27;18.60;;;6.73;;
25715;SDS011;13573;50.936;4.328;2022-10-30T04:43:54;23.90;;;8.17;;
25715;SDS011;13573;50.936;4.328;2022-10-30T04:46:21;24.83;;;8.03;;
25715;SDS011;13573;50.936;4.328;2022-10-30T04:48:47;21.13;;;7.77;;
25715;SDS011;13573;50.936;4.328;2022-10-30T04:51:14;18.40;;;6.63;;
25715;SDS011;13573;50.936;4.328;2022-10-30T04:53:40;15.67;;;7.07;;
25715;SDS011;13573;50.936;4.328;2022-10-30T04:56:07;14.00;;;6.50;;
25715;SDS011;13573;50.936;4.328;2022-10-30T04:58:33;21.03;;;7.47;;
25715;SDS011;13573;50.936;4.328;2022-10-30T05:01:01;21.23;;;8.77;;
25715;SDS011;13573;50.936;4.328;2022-10-30T05:03:28;16.50;;;7.17;;
25715;SDS011;13573;50.936;4.328;2022-10-30T05:05:57;19.77;;;6.70;;
25715;SDS011;13573;50.936;4.328;2022-10-30T05:08:26;18.03;;;7.30;;
25715;SDS011;13573;50.936;4.328;2022-10-30T05:10:53;22.00;;;8.10;;
25715;SDS011;13573;50.936;4.328;2022-10-30T05:13:19;19.17;;;9.00;;
25715;SDS011;13573;50.936;4.328;2022-10-30T05:15:47;17.90;;;7.47;;
25715;SDS011;13573;50.936;4.328;2022-10-30T05:18:13;17.67;;;8.37;;
25715;SDS011;13573;50.936;4.328;2022-10-30T05:20:40;23.40;;;8.70;;
25715;SDS011;13573;50.936;4.328;2022-10-30T05:23:07;26.87;;;8.53;;
25715;SDS011;13573;50.936;4.328;2022-10-30T05:25:34;26.20;;;9.03;;
25715;SDS011;13573;50.936;4.328;2022-10-30T05:28:02;25.27;;;8.60;;
25715;SDS011;13573;50.936;4.328;2022-10-30T05:30:29;31.50;;;8.33;;
25715;SDS011;13573;50.936;4.328;2022-10-30T05:32:59;18.37;;;8.03;;
25715;SDS011;13573;50.936;4.328;2022-10-30T05:35:25;22.67;;;7.97;;
25715;SDS011;13573;50.936;4.328;2022-10-30T05:37:52;23.03;;;8.33;;
25715;SDS011;13573;50.936;4.328;2022-10-30T05:40:19;19.90;;;7.67;;
25715;SDS011;13573;50.936;4.328;2022-10-30T05:42:46;20.33;;;8.87;;
25715;SDS011;13573;50.936;4.328;2022-10-30T05:45:13;20.07;;;7.30;;
25715;SDS011;13573;50.936;4.328;2022-10-30T05:47:41;20.87;;;8.37;;
25715;SDS011;13573;50.936;4.328;2022-10-30T05:50:08;17.17;;;8.03;;
25715;SDS011;13573;50.936;4.328;2022-10-30T05:52:36;25.40;;;8.60;;
25715;SDS011;13573;50.936;4.328;2022-10-30T05:55:03;20.60;;;7.77;;
25715;SDS011;13573;50.936;4.328;2022-10-30T05:57:30;13.60;;;6.73;;
25715;SDS011;13573;50.936;4.328;2022-10-30T05:59:57;18.87;;;7.70;;
25715;SDS011;13573;50.936;4.328;2022-10-30T06:02:25;21.40;;;7.90;;
25715;SDS011;13573;50.936;4.328;2022-10-30T06:04:51;15.77;;;7.70;;
25715;SDS011;13573;50.936;4.328;2022-10-30T06:07:17;14.93;;;8.00;;
25715;SDS011;13573;50.936;4.328;2022-10-30T06:09:45;18.23;;;8.50;;
25715;SDS011;13573;50.936;4.328;2022-10-30T06:12:11;17.10;;;7.83;;
25715;SDS011;13573;50.936;4.328;2022-10-30T06:14:37;18.07;;;8.77;;
25715;SDS011;13573;50.936;4.328;2022-10-30T06:17:04;17.60;;;7.90;;
25715;SDS011;13573;50.936;4.328;2022-10-30T06:19:31;19.97;;;9.03;;
25715;SDS011;13573;50.936;4.328;2022-10-30T06:21:57;21.10;;;8.70;;
25715;SDS011;13573;50.936;4.328;2022-10-30T06:24:24;24.73;;;9.20;;
25715;SDS011;13573;50.936;4.328;2022-10-30T06:26:51;18.90;;;8.83;;
25715;SDS011;13573;50.936;4.328;2022-10-30T06:29:17;23.17;;;9.20;;
25715;SDS011;13573;50.936;4.328;2022-10-30T06:31:44;22.00;;;9.43;;
25715;SDS011;13573;50.936;4.328;2022-10-30T06:34:10;24.40;;;9.70;;
25715;SDS011;13573;50.936;4.328;2022-10-30T06:36:37;24.20;;;8.17;;
25715;SDS011;13573;50.936;4.328;2022-10-30T06:39:04;20.90;;;8.07;;
25715;SDS011;13573;50.936;4.328;2022-10-30T06:41:30;18.13;;;8.50;;
25715;SDS011;13573;50.936;4.328;2022-10-30T06:43:58;22.47;;;8.20;;
25715;SDS011;13573;50.936;4.328;2022-10-30T06:46:25;25.63;;;8.77;;
25715;SDS011;13573;50.936;4.328;2022-10-30T06:48:51;21.33;;;8.53;;
25715;SDS011;13573;50.936;4.328;2022-10-30T06:51:18;21.93;;;8.50;;
25715;SDS011;13573;50.936;4.328;2022-10-30T06:53:45;23.80;;;8.00;;
25715;SDS011;13573;50.936;4.328;2022-10-30T06:56:12;18.60;;;8.50;;
25715;SDS011;13573;50.936;4.328;2022-10-30T06:58:38;16.60;;;8.47;;
25715;SDS011;13573;50.936;4.328;2022-10-30T07:01:05;19.60;;;8.20;;
25715;SDS011;13573;50.936;4.328;2022-10-30T07:03:32;16.10;;;8.60;;
25715;SDS011;13573;50.936;4.328;2022-10-30T07:05:59;31.00;;;9.10;;
25715;SDS011;13573;50.936;4.328;2022-10-30T07:08:26;21.27;;;8.20;;
25715;SDS011;13573;50.936;4.328;2022-10-30T07:10:54;21.03;;;7.20;;
25715;SDS011;13573;50.936;4.328;2022-10-30T07:13:23;17.10;;;7.07;;
25715;SDS011;13573;50.936;4.328;2022-10-30T07:15:50;18.33;;;7.50;;
25715;SDS011;13573;50.936;4.328;2022-10-30T07:18:16;17.20;;;6.80;;
25715;SDS011;13573;50.936;4.328;2022-10-30T07:20:43;18.27;;;6.57;;
25715;SDS011;13573;50.936;4.328;2022-10-30T07:23:09;12.97;;;6.07;;
25715;SDS011;13573;50.936;4.328;2022-10-30T07:25:36;17.27;;;6.57;;
25715;SDS011;13573;50.936;4.328;2022-10-30T07:28:03;14.90;;;6.23;;
25715;SDS011;13573;50.936;4.328;2022-10-30T07:30:31;15.53;;;6.50;;
25715;SDS011;13573;50.936;4.328;2022-10-30T07:32:59;20.50;;;6.80;;
25715;SDS011;13573;50.936;4.328;2022-10-30T07:35:27;18.30;;;6.87;;
25715;SDS011;13573;50.936;4.328;2022-10-30T07:37:54;23.23;;;8.20;;
25715;SDS011;13573;50.936;4.328;2022-10-30T07:40:21;22.20;;;7.67;;
25715;SDS011;13573;50.936;4.328;2022-10-30T07:42:48;22.40;;;7.37;;
25715;SDS011;13573;50.936;4.328;2022-10-30T07:45:14;22.00;;;8.10;;
25715;SDS011;13573;50.936;4.328;2022-10-30T07:47:41;21.30;;;7.80;;
25715;SDS011;13573;50.936;4.328;2022-10-30T07:50:09;16.73;;;6.60;;
25715;SDS011;13573;50.936;4.328;2022-10-30T07:52:36;18.97;;;6.83;;
25715;SDS011;13573;50.936;4.328;2022-10-30T07:55:04;16.80;;;7.37;;
25715;SDS011;13573;50.936;4.328;2022-10-30T07:57:34;17.27;;;7.07;;
25715;SDS011;13573;50.936;4.328;2022-10-30T08:00:04;21.20;;;7.60;;
25715;SDS011;13573;50.936;4.328;2022-10-30T08:02:35;17.97;;;7.40;;
25715;SDS011;13573;50.936;4.328;2022-10-30T08:05:02;20.67;;;7.40;;
25715;SDS011;13573;50.936;4.328;2022-10-30T08:07:30;22.80;;;8.23;;
25715;SDS011;13573;50.936;4.328;2022-10-30T08:09:57;22.83;;;8.30;;
25715;SDS011;13573;50.936;4.328;2022-10-30T08:12:24;19.57;;;8.03;;
25715;SDS011;13573;50.936;4.328;2022-10-30T08:14:52;26.33;;;8.43;;
25715;SDS011;13573;50.936;4.328;2022-10-30T08:17:20;20.17;;;8.40;;
25715;SDS011;13573;50.936;4.328;2022-10-30T08:19:46;21.63;;;8.60;;
25715;SDS011;13573;50.936;4.328;2022-10-30T08:22:14;18.63;;;8.40;;
25715;SDS011;13573;50.936;4.328;2022-10-30T08:24:40;21.33;;;8.10;;
25715;SDS011;13573;50.936;4.328;2022-10-30T08:27:07;23.27;;;8.90;;
25715;SDS011;13573;50.936;4.328;2022-10-30T08:29:34;25.37;;;9.10;;
25715;SDS011;13573;50.936;4.328;2022-10-30T08:32:01;24.87;;;8.70;;
25715;SDS011;13573;50.936;4.328;2022-10-30T08:34:28;26.07;;;8.63;;
25715;SDS011;13573;50.936;4.328;2022-10-30T08:36:56;21.53;;;8.03;;
25715;SDS011;13573;50.936;4.328;2022-10-30T08:39:24;24.90;;;9.57;;
25715;SDS011;13573;50.936;4.328;2022-10-30T08:41:51;25.93;;;9.27;;
25715;SDS011;13573;50.936;4.328;2022-10-30T08:44:18;20.80;;;8.33;;
25715;SDS011;13573;50.936;4.328;2022-10-30T08:46:44;21.80;;;8.73;;
25715;SDS011;13573;50.936;4.328;2022-10-30T08:49:11;24.93;;;8.53;;
25715;SDS011;13573;50.936;4.328;2022-10-30T08:51:37;22.03;;;8.83;;
25715;SDS011;13573;50.936;4.328;2022-10-30T08:54:05;24.50;;;8.33;;
25715;SDS011;13573;50.936;4.328;2022-10-30T08:56:31;22.40;;;9.07;;
25715;SDS011;13573;50.936;4.328;2022-10-30T08:58:58;17.93;;;7.43;;
25715;SDS011;13573;50.936;4.328;2022-10-30T09:01:24;25.57;;;8.67;;
25715;SDS011;13573;50.936;4.328;2022-10-30T09:03:51;18.63;;;7.57;;
25715;SDS011;13573;50.936;4.328;2022-10-30T09:06:17;22.57;;;7.93;;
25715;SDS011;13573;50.936;4.328;2022-10-30T09:08:44;17.50;;;8.00;;
25715;SDS011;13573;50.936;4.328;2022-10-30T09:11:11;22.83;;;7.93;;
25715;SDS011;13573;50.936;4.328;2022-10-30T09:13:39;25.73;;;7.77;;
25715;SDS011;13573;50.936;4.328;2022-10-30T09:16:06;20.60;;;8.23;;
25715;SDS011;13573;50.936;4.328;2022-10-30T09:18:33;25.07;;;8.60;;
25715;SDS011;13573;50.936;4.328;2022-10-30T09:21:00;23.33;;;7.77;;
25715;SDS011;13573;50.936;4.328;2022-10-30T09:23:27;21.77;;;7.23;;
25715;SDS011;13573;50.936;4.328;2022-10-30T09:25:55;22.70;;;8.00;;
25715;SDS011;13573;50.936;4.328;2022-10-30T09:28:22;18.25;;;7.50;;
25715;SDS011;13573;50.936;4.328;2022-10-30T09:30:49;17.23;;;7.45;;
25715;SDS011;13573;50.936;4.328;2022-10-30T09:33:17;19.65;;;7.42;;
25715;SDS011;13573;50.936;4.328;2022-10-30T09:35:44;16.23;;;6.67;;
25715;SDS011;13573;50.936;4.328;2022-10-30T09:38:11;21.60;;;8.20;;
25715;SDS011;13573;50.936;4.328;2022-10-30T09:46:39;17.48;;;7.35;;
25715;SDS011;13573;50.936;4.328;2022-10-30T09:49:19;23.85;;;7.78;;
25715;SDS011;13573;50.936;4.328;2022-10-30T09:51:54;21.93;;;7.53;;
25715;SDS011;13573;50.936;4.328;2022-10-30T09:54:40;26.97;;;8.28;;
25715;SDS011;13573;50.936;4.328;2022-10-30T09:57:24;19.32;;;7.50;;
25715;SDS011;13573;50.936;4.328;2022-10-30T10:00:11;21.65;;;7.83;;
25715;SDS011;13573;50.936;4.328;2022-10-30T10:05:50;17.67;;;7.62;;
25715;SDS011;13573;50.936;4.328;2022-10-30T10:08:22;18.57;;;7.15;;
25715;SDS011;13573;50.936;4.328;2022-10-30T10:10:56;20.70;;;7.07;;
25715;SDS011;13573;50.936;4.328;2022-10-30T10:13:26;21.37;;;7.28;;
25715;SDS011;13573;50.936;4.328;2022-10-30T10:15:58;17.65;;;6.40;;
25715;SDS011;13573;50.936;4.328;2022-10-30T10:18:32;18.82;;;6.17;;
25715;SDS011;13573;50.936;4.328;2022-10-30T10:21:20;14.50;;;6.40;;
25715;SDS011;13573;50.936;4.328;2022-10-30T10:23:49;19.27;;;6.30;;
25715;SDS011;13573;50.936;4.328;2022-10-30T10:26:27;17.47;;;6.40;;
25715;SDS011;13573;50.936;4.328;2022-10-30T10:29:11;17.07;;;6.00;;
25715;SDS011;13573;50.936;4.328;2022-10-30T10:32:03;21.70;;;6.60;;
25715;SDS011;13573;50.936;4.328;2022-10-30T10:34:56;18.43;;;6.17;;
25715;SDS011;13573;50.936;4.328;2022-10-30T10:37:42;20.40;;;7.07;;
25715;SDS011;13573;50.936;4.328;2022-10-30T10:40:25;17.40;;;7.20;;
25715;SDS011;13573;50.936;4.328;2022-10-30T10:45:41;18.60;;;6.50;;
25715;SDS011;13573;50.936;4.328;2022-10-30T10:48:19;17.47;;;6.07;;
25715;SDS011;13573;50.936;4.328;2022-10-30T10:50:51;19.63;;;6.60;;
25715;SDS011;13573;50.936;4.328;2022-10-30T10:53:36;15.57;;;6.17;;
25715;SDS011;13573;50.936;4.328;2022-10-30T10:56:11;18.90;;;6.10;;
25715;SDS011;13573;50.936;4.328;2022-10-30T10:58:40;17.37;;;5.43;;
25715;SDS011;13573;50.936;4.328;2022-10-30T11:01:13;24.03;;;6.00;;
25715;SDS011;13573;50.936;4.328;2022-10-30T11:06:31;23.90;;;5.70;;
25715;SDS011;13573;50.936;4.328;2022-10-30T11:09:10;20.33;;;5.10;;
25715;SDS011;13573;50.936;4.328;2022-10-30T11:11:30;15.10;;;6.33;;
25715;SDS011;13573;50.936;4.328;2022-10-30T11:13:56;17.40;;;5.20;;
25715;SDS011;13573;50.936;4.328;2022-10-30T11:16:26;19.03;;;5.60;;
25715;SDS011;13573;50.936;4.328;2022-10-30T11:18:59;18.37;;;5.90;;
25715;SDS011;13573;50.936;4.328;2022-10-30T11:21:28;14.57;;;6.53;;
25715;SDS011;13573;50.936;4.328;2022-10-30T11:23:58;22.43;;;6.53;;
25715;SDS011;13573;50.936;4.328;2022-10-30T11:26:25;26.07;;;6.63;;
25715;SDS011;13573;50.936;4.328;2022-10-30T11:28:56;13.37;;;5.73;;
25715;SDS011;13573;50.936;4.328;2022-10-30T11:31:26;17.50;;;5.73;;
25715;SDS011;13573;50.936;4.328;2022-10-30T11:36:39;20.00;;;6.50;;
25715;SDS011;13573;50.936;4.328;2022-10-30T11:39:09;21.80;;;5.97;;
25715;SDS011;13573;50.936;4.328;2022-10-30T11:41:35;18.27;;;5.60;;
25715;SDS011;13573;50.936;4.328;2022-10-30T11:44:04;21.20;;;5.80;;
25715;SDS011;13573;50.936;4.328;2022-10-30T11:46:31;15.33;;;5.50;;
25715;SDS011;13573;50.936;4.328;2022-10-30T11:49:00;14.97;;;5.47;;
25715;SDS011;13573;50.936;4.328;2022-10-30T11:51:28;14.67;;;5.63;;
25715;SDS011;13573;50.936;4.328;2022-10-30T11:53:59;15.80;;;5.40;;
25715;SDS011;13573;50.936;4.328;2022-10-30T11:56:26;22.37;;;5.93;;
25715;SDS011;13573;50.936;4.328;2022-10-30T11:58:53;14.73;;;5.63;;
25715;SDS011;13573;50.936;4.328;2022-10-30T12:01:23;21.13;;;5.93;;
25715;SDS011;13573;50.936;4.328;2022-10-30T12:03:52;14.97;;;5.80;;
25715;SDS011;13573;50.936;4.328;2022-10-30T12:06:25;15.60;;;6.07;;
25715;SDS011;13573;50.936;4.328;2022-10-30T12:08:58;18.77;;;6.03;;
25715;SDS011;13573;50.936;4.328;2022-10-30T12:11:27;16.23;;;6.00;;
25715;SDS011;13573;50.936;4.328;2022-10-30T12:13:57;17.13;;;6.10;;
25715;SDS011;13573;50.936;4.328;2022-10-30T12:16:25;15.13;;;5.90;;
25715;SDS011;13573;50.936;4.328;2022-10-30T12:18:53;15.70;;;5.90;;
25715;SDS011;13573;50.936;4.328;2022-10-30T12:21:24;21.73;;;5.53;;
25715;SDS011;13573;50.936;4.328;2022-10-30T12:23:54;19.00;;;5.43;;
25715;SDS011;13573;50.936;4.328;2022-10-30T12:26:25;14.23;;;5.50;;
25715;SDS011;13573;50.936;4.328;2022-10-30T12:28:58;13.50;;;5.33;;
25715;SDS011;13573;50.936;4.328;2022-10-30T12:31:31;17.80;;;5.87;;
25715;SDS011;13573;50.936;4.328;2022-10-30T12:34:10;16.33;;;5.63;;
25715;SDS011;13573;50.936;4.328;2022-10-30T12:36:41;20.13;;;5.73;;
25715;SDS011;13573;50.936;4.328;2022-10-30T12:39:12;19.57;;;6.00;;
25715;SDS011;13573;50.936;4.328;2022-10-30T12:41:42;21.03;;;5.47;;
25715;SDS011;13573;50.936;4.328;2022-10-30T12:44:13;19.47;;;5.33;;
25715;SDS011;13573;50.936;4.328;2022-10-30T12:46:44;12.77;;;5.17;;
25715;SDS011;13573;50.936;4.328;2022-10-30T12:49:25;22.70;;;6.03;;
25715;SDS011;13573;50.936;4.328;2022-10-30T12:51:57;28.30;;;6.70;;
25715;SDS011;13573;50.936;4.328;2022-10-30T12:54:30;16.97;;;6.03;;
25715;SDS011;13573;50.936;4.328;2022-10-30T12:57:02;17.43;;;5.10;;
25715;SDS011;13573;50.936;4.328;2022-10-30T12:59:42;19.27;;;5.30;;
25715;SDS011;13573;50.936;4.328;2022-10-30T13:02:27;22.10;;;5.80;;
25715;SDS011;13573;50.936;4.328;2022-10-30T13:05:14;15.97;;;5.07;;
25715;SDS011;13573;50.936;4.328;2022-10-30T13:07:44;17.70;;;5.33;;
25715;SDS011;13573;50.936;4.328;2022-10-30T13:10:21;14.13;;;5.33;;
25715;SDS011;13573;50.936;4.328;2022-10-30T13:12:50;21.93;;;5.23;;
25715;SDS011;13573;50.936;4.328;2022-10-30T13:15:22;11.23;;;5.40;;
25715;SDS011;13573;50.936;4.328;2022-10-30T13:17:51;18.77;;;4.77;;
25715;SDS011;13573;50.936;4.328;2022-10-30T13:20:18;17.50;;;5.37;;
25715;SDS011;13573;50.936;4.328;2022-10-30T13:22:48;18.60;;;5.40;;
25715;SDS011;13573;50.936;4.328;2022-10-30T13:28:11;12.80;;;5.43;;
25715;SDS011;13573;50.936;4.328;2022-10-30T13:30:39;18.73;;;5.97;;
25715;SDS011;13573;50.936;4.328;2022-10-30T13:33:12;16.20;;;5.60;;
25715;SDS011;13573;50.936;4.328;2022-10-30T13:35:47;13.13;;;5.57;;
25715;SDS011;13573;50.936;4.328;2022-10-30T13:43:53;24.77;;;6.10;;
25715;SDS011;13573;50.936;4.328;2022-10-30T13:46:24;24.60;;;5.70;;
25715;SDS011;13573;50.936;4.328;2022-10-30T13:49:19;15.83;;;6.23;;
25715;SDS011;13573;50.936;4.328;2022-10-30T13:51:54;19.07;;;5.83;;
25715;SDS011;13573;50.936;4.328;2022-10-30T13:54:24;18.13;;;5.47;;
25715;SDS011;13573;50.936;4.328;2022-10-30T13:56:52;18.67;;;5.93;;
25715;SDS011;13573;50.936;4.328;2022-10-30T13:59:25;19.23;;;6.40;;
25715;SDS011;13573;50.936;4.328;2022-10-30T14:01:56;13.10;;;5.50;;
25715;SDS011;13573;50.936;4.328;2022-10-30T14:04:26;15.63;;;5.80;;
25715;SDS011;13573;50.936;4.328;2022-10-30T14:07:05;18.93;;;6.40;;
25715;SDS011;13573;50.936;4.328;2022-10-30T14:10:43;14.53;;;5.50;;
25715;SDS011;13573;50.936;4.328;2022-10-30T14:15:15;18.77;;;6.83;;
25715;SDS011;13573;50.936;4.328;2022-10-30T14:20:35;21.83;;;6.20;;
25715;SDS011;13573;50.936;4.328;2022-10-30T14:23:36;18.90;;;6.03;;
25715;SDS011;13573;50.936;4.328;2022-10-30T14:28:43;16.63;;;6.67;;
25715;SDS011;13573;50.936;4.328;2022-10-30T14:31:11;22.50;;;7.20;;
25715;SDS011;13573;50.936;4.328;2022-10-30T14:33:45;18.13;;;7.00;;
25715;SDS011;13573;50.936;4.328;2022-10-30T14:36:19;22.90;;;7.00;;
25715;SDS011;13573;50.936;4.328;2022-10-30T14:39:00;19.20;;;7.30;;
25715;SDS011;13573;50.936;4.328;2022-10-30T14:42:27;16.27;;;7.47;;
25715;SDS011;13573;50.936;4.328;2022-10-30T14:44:45;15.97;;;6.93;;
25715;SDS011;13573;50.936;4.328;2022-10-30T14:50:14;19.80;;;8.10;;
25715;SDS011;13573;50.936;4.328;2022-10-30T14:53:55;20.57;;;8.30;;
25715;SDS011;13573;50.936;4.328;2022-10-30T14:58:20;23.10;;;8.20;;
25715;SDS011;13573;50.936;4.328;2022-10-30T15:03:29;20.17;;;8.67;;
25715;SDS011;13573;50.936;4.328;2022-10-30T15:06:01;30.30;;;8.77;;
25715;SDS011;13573;50.936;4.328;2022-10-30T15:08:50;24.10;;;9.07;;
25715;SDS011;13573;50.936;4.328;2022-10-30T15:11:24;20.40;;;9.33;;
25715;SDS011;13573;50.936;4.328;2022-10-30T15:13:52;25.13;;;10.50;;
25715;SDS011;13573;50.936;4.328;2022-10-30T15:16:22;23.63;;;8.23;;
25715;SDS011;13573;50.936;4.328;2022-10-30T15:18:59;16.80;;;8.07;;
25715;SDS011;13573;50.936;4.328;2022-10-30T15:21:26;20.60;;;7.40;;
25715;SDS011;13573;50.936;4.328;2022-10-30T15:23:57;22.53;;;7.53;;
25715;SDS011;13573;50.936;4.328;2022-10-30T15:26:30;20.97;;;8.50;;
25715;SDS011;13573;50.936;4.328;2022-10-30T15:28:58;22.60;;;8.53;;
25715;SDS011;13573;50.936;4.328;2022-10-30T15:31:26;19.57;;;8.37;;
25715;SDS011;13573;50.936;4.328;2022-10-30T15:33:54;20.37;;;7.87;;